sensor_id;sensor_type;location;lat;lon;timestamp;P1;durP1;ratioP1;P2;durP2;ratioP2
55647;SDS011;45266;48.756;9.246;2023-03-17T00:00:56;6.70;;;5.37;;
55647;SDS011;45266;48.756;9.246;2023-03-17T00:01:58;7.73;;;5.27;;
55647;SDS011;45266;48.756;9.246;2023-03-17T00:02:59;9.00;;;5.23;;
55647;SDS011;45266;48.756;9.246;2023-03-17T00:04:02;8.60;;;5.40;;
55647;SDS011;45266;48.756;9.246;2023-03-17T00:06:39;6.93;;;4.77;;
55647;SDS011;45266;48.756;9.246;2023-03-17T00:07:41;6.27;;;4.70;;
55647;SDS011;45266;48.756;9.246;2023-03-17T00:08:44;6.93;;;4.90;;
55647;SDS011;45266;48.756;9.246;2023-03-17T00:09:46;7.63;;;4.73;;
55647;SDS011;45266;48.756;9.246;2023-03-17T00:10:48;6.90;;;4.97;;
55647;SDS011;45266;48.756;9.246;2023-03-17T00:11:51;8.07;;;5.43;;
55647;SDS011;45266;48.756;9.246;2023-03-17T00:12:53;6.17;;;5.20;;
55647;SDS011;45266;48.756;9.246;2023-03-17T00:13:55;6.07;;;5.30;;
55647;SDS011;45266;48.756;9.246;2023-03-17T00:14:57;6.13;;;5.03;;
55647;SDS011;45266;48.756;9.246;2023-03-17T00:16:01;7.03;;;5.17;;
55647;SDS011;45266;48.756;9.246;2023-03-17T00:17:04;9.37;;;4.70;;
55647;SDS011;45266;48.756;9.246;2023-03-17T00:18:14;7.67;;;5.27;;
55647;SDS011;45266;48.756;9.246;2023-03-17T00:19:39;6.80;;;5.20;;
55647;SDS011;45266;48.756;9.246;2023-03-17T00:20:39;7.80;;;4.70;;
55647;SDS011;45266;48.756;9.246;2023-03-17T00:21:42;6.40;;;4.70;;
55647;SDS011;45266;48.756;9.246;2023-03-17T00:22:45;6.23;;;4.80;;
55647;SDS011;45266;48.756;9.246;2023-03-17T00:23:48;8.50;;;4.77;;
55647;SDS011;45266;48.756;9.246;2023-03-17T00:24:51;6.27;;;4.77;;
55647;SDS011;45266;48.756;9.246;2023-03-17T00:25:53;9.60;;;4.90;;
55647;SDS011;45266;48.756;9.246;2023-03-17T00:26:57;9.33;;;5.23;;
55647;SDS011;45266;48.756;9.246;2023-03-17T00:27:59;7.10;;;5.30;;
55647;SDS011;45266;48.756;9.246;2023-03-17T00:29:03;8.27;;;5.07;;
55647;SDS011;45266;48.756;9.246;2023-03-17T00:30:06;6.53;;;5.30;;
55647;SDS011;45266;48.756;9.246;2023-03-17T00:31:11;6.73;;;5.17;;
55647;SDS011;45266;48.756;9.246;2023-03-17T00:32:16;9.03;;;5.13;;
55647;SDS011;45266;48.756;9.246;2023-03-17T00:33:24;7.20;;;4.97;;
55647;SDS011;45266;48.756;9.246;2023-03-17T00:34:28;4.90;;;4.37;;
55647;SDS011;45266;48.756;9.246;2023-03-17T00:35:30;6.13;;;4.50;;
55647;SDS011;45266;48.756;9.246;2023-03-17T00:36:32;5.17;;;4.30;;
55647;SDS011;45266;48.756;9.246;2023-03-17T00:37:35;6.47;;;4.50;;
55647;SDS011;45266;48.756;9.246;2023-03-17T00:38:36;5.50;;;4.40;;
55647;SDS011;45266;48.756;9.246;2023-03-17T00:39:38;7.67;;;5.10;;
55647;SDS011;45266;48.756;9.246;2023-03-17T00:40:41;6.20;;;4.63;;
55647;SDS011;45266;48.756;9.246;2023-03-17T00:41:45;7.20;;;4.53;;
55647;SDS011;45266;48.756;9.246;2023-03-17T00:42:50;6.00;;;4.80;;
55647;SDS011;45266;48.756;9.246;2023-03-17T00:43:53;6.60;;;5.07;;
55647;SDS011;45266;48.756;9.246;2023-03-17T00:44:55;7.70;;;5.00;;
55647;SDS011;45266;48.756;9.246;2023-03-17T00:45:57;9.63;;;4.60;;
55647;SDS011;45266;48.756;9.246;2023-03-17T00:46:59;6.80;;;4.87;;
55647;SDS011;45266;48.756;9.246;2023-03-17T00:48:02;8.33;;;4.63;;
55647;SDS011;45266;48.756;9.246;2023-03-17T00:50:17;6.17;;;4.77;;
55647;SDS011;45266;48.756;9.246;2023-03-17T00:51:22;6.70;;;4.37;;
55647;SDS011;45266;48.756;9.246;2023-03-17T00:52:24;7.37;;;4.80;;
55647;SDS011;45266;48.756;9.246;2023-03-17T00:53:27;9.50;;;4.93;;
55647;SDS011;45266;48.756;9.246;2023-03-17T00:54:28;7.23;;;5.13;;
55647;SDS011;45266;48.756;9.246;2023-03-17T00:55:30;6.87;;;4.80;;
55647;SDS011;45266;48.756;9.246;2023-03-17T00:56:32;7.93;;;4.50;;
55647;SDS011;45266;48.756;9.246;2023-03-17T00:57:35;6.77;;;5.10;;
55647;SDS011;45266;48.756;9.246;2023-03-17T00:58:37;7.23;;;5.07;;
55647;SDS011;45266;48.756;9.246;2023-03-17T00:59:40;7.90;;;5.20;;
55647;SDS011;45266;48.756;9.246;2023-03-17T01:00:42;7.80;;;5.20;;
55647;SDS011;45266;48.756;9.246;2023-03-17T01:01:46;5.53;;;4.30;;
55647;SDS011;45266;48.756;9.246;2023-03-17T01:02:49;6.20;;;4.13;;
55647;SDS011;45266;48.756;9.246;2023-03-17T01:03:52;7.67;;;5.10;;
55647;SDS011;45266;48.756;9.246;2023-03-17T01:04:54;7.57;;;5.23;;
55647;SDS011;45266;48.756;9.246;2023-03-17T01:06:07;6.57;;;4.57;;
55647;SDS011;45266;48.756;9.246;2023-03-17T01:07:11;8.83;;;5.00;;
55647;SDS011;45266;48.756;9.246;2023-03-17T01:08:14;6.63;;;4.70;;
55647;SDS011;45266;48.756;9.246;2023-03-17T01:09:17;6.53;;;4.97;;
55647;SDS011;45266;48.756;9.246;2023-03-17T01:10:21;7.23;;;5.40;;
55647;SDS011;45266;48.756;9.246;2023-03-17T01:11:28;6.77;;;4.83;;
55647;SDS011;45266;48.756;9.246;2023-03-17T01:12:30;7.13;;;4.73;;
55647;SDS011;45266;48.756;9.246;2023-03-17T01:13:31;7.87;;;4.60;;
55647;SDS011;45266;48.756;9.246;2023-03-17T01:14:34;7.83;;;4.67;;
55647;SDS011;45266;48.756;9.246;2023-03-17T01:15:38;7.67;;;5.27;;
55647;SDS011;45266;48.756;9.246;2023-03-17T01:16:45;7.37;;;5.00;;
55647;SDS011;45266;48.756;9.246;2023-03-17T01:17:48;8.57;;;4.90;;
55647;SDS011;45266;48.756;9.246;2023-03-17T01:18:50;10.03;;;4.90;;
55647;SDS011;45266;48.756;9.246;2023-03-17T01:19:53;8.60;;;4.77;;
55647;SDS011;45266;48.756;9.246;2023-03-17T01:20:55;6.57;;;4.93;;
55647;SDS011;45266;48.756;9.246;2023-03-17T01:21:56;7.37;;;5.00;;
55647;SDS011;45266;48.756;9.246;2023-03-17T01:22:58;6.83;;;5.33;;
55647;SDS011;45266;48.756;9.246;2023-03-17T01:24:02;7.80;;;4.80;;
55647;SDS011;45266;48.756;9.246;2023-03-17T01:25:04;7.80;;;5.03;;
55647;SDS011;45266;48.756;9.246;2023-03-17T01:26:06;8.20;;;5.10;;
55647;SDS011;45266;48.756;9.246;2023-03-17T01:27:08;6.03;;;4.80;;
55647;SDS011;45266;48.756;9.246;2023-03-17T01:28:14;7.53;;;5.00;;
55647;SDS011;45266;48.756;9.246;2023-03-17T01:29:18;6.90;;;4.90;;
55647;SDS011;45266;48.756;9.246;2023-03-17T01:31:27;7.93;;;4.80;;
55647;SDS011;45266;48.756;9.246;2023-03-17T01:32:29;7.83;;;5.13;;
55647;SDS011;45266;48.756;9.246;2023-03-17T01:33:32;7.97;;;5.10;;
55647;SDS011;45266;48.756;9.246;2023-03-17T01:34:33;6.23;;;4.73;;
55647;SDS011;45266;48.756;9.246;2023-03-17T01:35:35;6.33;;;4.97;;
55647;SDS011;45266;48.756;9.246;2023-03-17T01:36:38;7.03;;;5.03;;
55647;SDS011;45266;48.756;9.246;2023-03-17T01:37:41;7.70;;;5.30;;
55647;SDS011;45266;48.756;9.246;2023-03-17T01:38:43;8.97;;;4.57;;
55647;SDS011;45266;48.756;9.246;2023-03-17T01:39:48;6.80;;;5.27;;
55647;SDS011;45266;48.756;9.246;2023-03-17T01:40:50;6.53;;;5.10;;
55647;SDS011;45266;48.756;9.246;2023-03-17T01:41:52;7.87;;;5.07;;
55647;SDS011;45266;48.756;9.246;2023-03-17T01:44:14;6.57;;;4.43;;
55647;SDS011;45266;48.756;9.246;2023-03-17T01:46:57;6.90;;;5.07;;
55647;SDS011;45266;48.756;9.246;2023-03-17T01:48:01;8.00;;;4.63;;
55647;SDS011;45266;48.756;9.246;2023-03-17T01:49:05;7.10;;;5.20;;
55647;SDS011;45266;48.756;9.246;2023-03-17T01:50:09;8.00;;;5.53;;
55647;SDS011;45266;48.756;9.246;2023-03-17T01:51:13;8.00;;;4.60;;
55647;SDS011;45266;48.756;9.246;2023-03-17T01:52:19;6.03;;;4.73;;
55647;SDS011;45266;48.756;9.246;2023-03-17T01:53:23;6.37;;;4.70;;
55647;SDS011;45266;48.756;9.246;2023-03-17T01:54:27;6.10;;;4.63;;
55647;SDS011;45266;48.756;9.246;2023-03-17T01:55:29;6.80;;;4.67;;
55647;SDS011;45266;48.756;9.246;2023-03-17T01:56:31;6.53;;;4.80;;
55647;SDS011;45266;48.756;9.246;2023-03-17T01:58:51;6.67;;;4.30;;
55647;SDS011;45266;48.756;9.246;2023-03-17T01:59:55;6.70;;;4.37;;
55647;SDS011;45266;48.756;9.246;2023-03-17T02:01:08;5.73;;;3.80;;
55647;SDS011;45266;48.756;9.246;2023-03-17T02:02:12;7.83;;;4.67;;
55647;SDS011;45266;48.756;9.246;2023-03-17T02:03:18;7.03;;;4.70;;
55647;SDS011;45266;48.756;9.246;2023-03-17T02:04:20;6.40;;;4.60;;
55647;SDS011;45266;48.756;9.246;2023-03-17T02:05:23;6.33;;;4.90;;
55647;SDS011;45266;48.756;9.246;2023-03-17T02:06:27;7.13;;;5.17;;
55647;SDS011;45266;48.756;9.246;2023-03-17T02:07:29;6.83;;;4.60;;
55647;SDS011;45266;48.756;9.246;2023-03-17T02:08:31;8.30;;;4.73;;
55647;SDS011;45266;48.756;9.246;2023-03-17T02:09:33;5.30;;;4.60;;
55647;SDS011;45266;48.756;9.246;2023-03-17T02:10:36;10.93;;;4.57;;
55647;SDS011;45266;48.756;9.246;2023-03-17T02:11:37;5.17;;;4.67;;
55647;SDS011;45266;48.756;9.246;2023-03-17T02:12:41;5.87;;;4.53;;
55647;SDS011;45266;48.756;9.246;2023-03-17T02:13:44;7.07;;;4.40;;
55647;SDS011;45266;48.756;9.246;2023-03-17T02:14:46;7.47;;;5.07;;
55647;SDS011;45266;48.756;9.246;2023-03-17T02:15:49;7.33;;;4.93;;
55647;SDS011;45266;48.756;9.246;2023-03-17T02:16:51;6.60;;;4.93;;
55647;SDS011;45266;48.756;9.246;2023-03-17T02:17:53;6.47;;;4.63;;
55647;SDS011;45266;48.756;9.246;2023-03-17T02:18:55;6.13;;;4.40;;
55647;SDS011;45266;48.756;9.246;2023-03-17T02:20:10;6.90;;;4.97;;
55647;SDS011;45266;48.756;9.246;2023-03-17T02:21:30;7.43;;;4.57;;
55647;SDS011;45266;48.756;9.246;2023-03-17T02:22:43;7.00;;;4.70;;
55647;SDS011;45266;48.756;9.246;2023-03-17T02:23:50;7.03;;;4.60;;
55647;SDS011;45266;48.756;9.246;2023-03-17T02:24:54;5.77;;;4.40;;
55647;SDS011;45266;48.756;9.246;2023-03-17T02:25:58;5.03;;;4.53;;
55647;SDS011;45266;48.756;9.246;2023-03-17T02:27:05;6.77;;;4.67;;
55647;SDS011;45266;48.756;9.246;2023-03-17T02:28:22;9.07;;;4.63;;
55647;SDS011;45266;48.756;9.246;2023-03-17T02:29:28;10.00;;;5.03;;
55647;SDS011;45266;48.756;9.246;2023-03-17T02:30:34;8.23;;;5.00;;
55647;SDS011;45266;48.756;9.246;2023-03-17T02:31:37;6.47;;;4.87;;
55647;SDS011;45266;48.756;9.246;2023-03-17T02:32:38;8.63;;;5.50;;
55647;SDS011;45266;48.756;9.246;2023-03-17T02:33:40;7.33;;;5.13;;
55647;SDS011;45266;48.756;9.246;2023-03-17T02:34:43;6.37;;;4.93;;
55647;SDS011;45266;48.756;9.246;2023-03-17T02:35:48;6.77;;;5.37;;
55647;SDS011;45266;48.756;9.246;2023-03-17T02:36:51;7.83;;;5.10;;
55647;SDS011;45266;48.756;9.246;2023-03-17T02:37:53;7.87;;;5.80;;
55647;SDS011;45266;48.756;9.246;2023-03-17T02:38:54;9.07;;;5.83;;
55647;SDS011;45266;48.756;9.246;2023-03-17T02:39:57;6.47;;;5.17;;
55647;SDS011;45266;48.756;9.246;2023-03-17T02:41:01;6.47;;;5.37;;
55647;SDS011;45266;48.756;9.246;2023-03-17T02:42:03;8.00;;;5.50;;
55647;SDS011;45266;48.756;9.246;2023-03-17T02:43:06;8.83;;;5.20;;
55647;SDS011;45266;48.756;9.246;2023-03-17T02:44:08;5.87;;;5.20;;
55647;SDS011;45266;48.756;9.246;2023-03-17T02:45:10;6.87;;;5.60;;
55647;SDS011;45266;48.756;9.246;2023-03-17T02:46:13;8.13;;;5.90;;
55647;SDS011;45266;48.756;9.246;2023-03-17T02:47:15;7.43;;;5.73;;
55647;SDS011;45266;48.756;9.246;2023-03-17T02:48:17;9.67;;;5.30;;
55647;SDS011;45266;48.756;9.246;2023-03-17T02:49:19;7.57;;;5.20;;
55647;SDS011;45266;48.756;9.246;2023-03-17T02:50:23;8.03;;;5.07;;
55647;SDS011;45266;48.756;9.246;2023-03-17T02:51:26;6.07;;;5.10;;
55647;SDS011;45266;48.756;9.246;2023-03-17T02:52:29;7.10;;;5.10;;
55647;SDS011;45266;48.756;9.246;2023-03-17T02:53:31;10.50;;;5.10;;
55647;SDS011;45266;48.756;9.246;2023-03-17T02:54:32;6.83;;;5.20;;
55647;SDS011;45266;48.756;9.246;2023-03-17T02:55:34;5.83;;;4.67;;
55647;SDS011;45266;48.756;9.246;2023-03-17T02:56:36;8.77;;;4.93;;
55647;SDS011;45266;48.756;9.246;2023-03-17T02:57:38;7.43;;;5.00;;
55647;SDS011;45266;48.756;9.246;2023-03-17T02:58:40;6.03;;;4.50;;
55647;SDS011;45266;48.756;9.246;2023-03-17T02:59:42;7.10;;;4.90;;
55647;SDS011;45266;48.756;9.246;2023-03-17T03:00:44;7.77;;;4.83;;
55647;SDS011;45266;48.756;9.246;2023-03-17T03:01:46;5.57;;;4.63;;
55647;SDS011;45266;48.756;9.246;2023-03-17T03:02:48;6.57;;;5.07;;
55647;SDS011;45266;48.756;9.246;2023-03-17T03:03:50;6.37;;;5.10;;
55647;SDS011;45266;48.756;9.246;2023-03-17T03:04:53;8.10;;;5.33;;
55647;SDS011;45266;48.756;9.246;2023-03-17T03:05:54;7.77;;;5.17;;
55647;SDS011;45266;48.756;9.246;2023-03-17T03:06:58;8.93;;;5.37;;
55647;SDS011;45266;48.756;9.246;2023-03-17T03:08:00;7.03;;;5.27;;
55647;SDS011;45266;48.756;9.246;2023-03-17T03:09:02;6.33;;;5.13;;
55647;SDS011;45266;48.756;9.246;2023-03-17T03:10:04;5.87;;;4.97;;
55647;SDS011;45266;48.756;9.246;2023-03-17T03:11:06;7.87;;;5.27;;
55647;SDS011;45266;48.756;9.246;2023-03-17T03:12:08;8.60;;;5.50;;
55647;SDS011;45266;48.756;9.246;2023-03-17T03:13:11;5.80;;;4.80;;
55647;SDS011;45266;48.756;9.246;2023-03-17T03:14:13;7.87;;;5.27;;
55647;SDS011;45266;48.756;9.246;2023-03-17T03:15:16;6.70;;;4.90;;
55647;SDS011;45266;48.756;9.246;2023-03-17T03:16:18;6.37;;;5.10;;
55647;SDS011;45266;48.756;9.246;2023-03-17T03:17:20;7.43;;;4.83;;
55647;SDS011;45266;48.756;9.246;2023-03-17T03:18:22;6.60;;;4.97;;
55647;SDS011;45266;48.756;9.246;2023-03-17T03:19:24;6.03;;;5.10;;
55647;SDS011;45266;48.756;9.246;2023-03-17T03:20:26;9.50;;;5.50;;
55647;SDS011;45266;48.756;9.246;2023-03-17T03:21:28;7.87;;;5.63;;
55647;SDS011;45266;48.756;9.246;2023-03-17T03:22:30;9.77;;;5.70;;
55647;SDS011;45266;48.756;9.246;2023-03-17T03:23:31;7.93;;;5.77;;
55647;SDS011;45266;48.756;9.246;2023-03-17T03:24:34;8.73;;;5.63;;
55647;SDS011;45266;48.756;9.246;2023-03-17T03:25:35;6.63;;;5.00;;
55647;SDS011;45266;48.756;9.246;2023-03-17T03:26:38;7.33;;;4.93;;
55647;SDS011;45266;48.756;9.246;2023-03-17T03:27:41;6.40;;;5.27;;
55647;SDS011;45266;48.756;9.246;2023-03-17T03:28:43;7.17;;;5.10;;
55647;SDS011;45266;48.756;9.246;2023-03-17T03:29:44;7.03;;;5.57;;
55647;SDS011;45266;48.756;9.246;2023-03-17T03:30:47;7.13;;;4.87;;
55647;SDS011;45266;48.756;9.246;2023-03-17T03:31:49;6.67;;;4.63;;
55647;SDS011;45266;48.756;9.246;2023-03-17T03:32:51;10.13;;;5.60;;
55647;SDS011;45266;48.756;9.246;2023-03-17T03:33:53;8.10;;;5.20;;
55647;SDS011;45266;48.756;9.246;2023-03-17T03:34:55;8.00;;;5.17;;
55647;SDS011;45266;48.756;9.246;2023-03-17T03:35:57;7.87;;;5.33;;
55647;SDS011;45266;48.756;9.246;2023-03-17T03:36:59;6.43;;;5.27;;
55647;SDS011;45266;48.756;9.246;2023-03-17T03:38:01;8.30;;;5.10;;
55647;SDS011;45266;48.756;9.246;2023-03-17T03:39:03;7.27;;;5.87;;
55647;SDS011;45266;48.756;9.246;2023-03-17T03:40:05;7.47;;;6.10;;
55647;SDS011;45266;48.756;9.246;2023-03-17T03:41:07;8.30;;;5.97;;
55647;SDS011;45266;48.756;9.246;2023-03-17T03:42:10;9.40;;;5.50;;
55647;SDS011;45266;48.756;9.246;2023-03-17T03:43:11;7.57;;;5.53;;
55647;SDS011;45266;48.756;9.246;2023-03-17T03:44:23;7.57;;;5.40;;
55647;SDS011;45266;48.756;9.246;2023-03-17T03:45:25;8.50;;;5.43;;
55647;SDS011;45266;48.756;9.246;2023-03-17T03:46:27;6.63;;;5.17;;
55647;SDS011;45266;48.756;9.246;2023-03-17T03:47:29;7.70;;;5.20;;
55647;SDS011;45266;48.756;9.246;2023-03-17T03:48:31;7.80;;;5.20;;
55647;SDS011;45266;48.756;9.246;2023-03-17T03:49:33;6.27;;;4.77;;
55647;SDS011;45266;48.756;9.246;2023-03-17T03:50:34;8.20;;;4.90;;
55647;SDS011;45266;48.756;9.246;2023-03-17T03:51:36;8.30;;;4.93;;
55647;SDS011;45266;48.756;9.246;2023-03-17T03:52:38;6.93;;;4.90;;
55647;SDS011;45266;48.756;9.246;2023-03-17T03:53:40;6.70;;;5.07;;
55647;SDS011;45266;48.756;9.246;2023-03-17T03:54:42;6.00;;;4.80;;
55647;SDS011;45266;48.756;9.246;2023-03-17T03:55:44;6.17;;;4.83;;
55647;SDS011;45266;48.756;9.246;2023-03-17T03:56:46;5.73;;;4.80;;
55647;SDS011;45266;48.756;9.246;2023-03-17T03:57:48;5.70;;;4.63;;
55647;SDS011;45266;48.756;9.246;2023-03-17T03:58:50;6.37;;;4.87;;
55647;SDS011;45266;48.756;9.246;2023-03-17T03:59:52;7.30;;;5.07;;
55647;SDS011;45266;48.756;9.246;2023-03-17T04:00:54;9.00;;;5.30;;
55647;SDS011;45266;48.756;9.246;2023-03-17T04:01:56;6.63;;;4.97;;
55647;SDS011;45266;48.756;9.246;2023-03-17T04:02:58;8.03;;;5.23;;
55647;SDS011;45266;48.756;9.246;2023-03-17T04:04:01;8.30;;;5.47;;
55647;SDS011;45266;48.756;9.246;2023-03-17T04:05:03;7.63;;;5.73;;
55647;SDS011;45266;48.756;9.246;2023-03-17T04:06:07;10.07;;;5.87;;
55647;SDS011;45266;48.756;9.246;2023-03-17T04:07:09;7.60;;;5.87;;
55647;SDS011;45266;48.756;9.246;2023-03-17T04:08:11;7.37;;;5.43;;
55647;SDS011;45266;48.756;9.246;2023-03-17T04:09:13;6.33;;;5.17;;
55647;SDS011;45266;48.756;9.246;2023-03-17T04:10:15;7.03;;;4.60;;
55647;SDS011;45266;48.756;9.246;2023-03-17T04:11:17;7.23;;;5.13;;
55647;SDS011;45266;48.756;9.246;2023-03-17T04:12:20;8.23;;;5.60;;
55647;SDS011;45266;48.756;9.246;2023-03-17T04:13:21;6.63;;;5.30;;
55647;SDS011;45266;48.756;9.246;2023-03-17T04:14:23;7.17;;;5.10;;
55647;SDS011;45266;48.756;9.246;2023-03-17T04:15:25;8.37;;;5.57;;
55647;SDS011;45266;48.756;9.246;2023-03-17T04:16:27;8.83;;;5.90;;
55647;SDS011;45266;48.756;9.246;2023-03-17T04:17:29;7.13;;;5.70;;
55647;SDS011;45266;48.756;9.246;2023-03-17T04:18:31;7.87;;;5.40;;
55647;SDS011;45266;48.756;9.246;2023-03-17T04:19:33;6.77;;;4.70;;
55647;SDS011;45266;48.756;9.246;2023-03-17T04:20:35;5.33;;;4.37;;
55647;SDS011;45266;48.756;9.246;2023-03-17T04:21:38;7.30;;;4.50;;
55647;SDS011;45266;48.756;9.246;2023-03-17T04:22:40;7.20;;;5.43;;
55647;SDS011;45266;48.756;9.246;2023-03-17T04:23:43;7.17;;;5.40;;
55647;SDS011;45266;48.756;9.246;2023-03-17T04:24:46;7.13;;;4.90;;
55647;SDS011;45266;48.756;9.246;2023-03-17T04:25:51;7.63;;;5.40;;
55647;SDS011;45266;48.756;9.246;2023-03-17T04:26:53;5.83;;;4.70;;
55647;SDS011;45266;48.756;9.246;2023-03-17T04:27:55;6.90;;;5.37;;
55647;SDS011;45266;48.756;9.246;2023-03-17T04:28:57;8.30;;;5.20;;
55647;SDS011;45266;48.756;9.246;2023-03-17T04:29:59;7.20;;;5.07;;
55647;SDS011;45266;48.756;9.246;2023-03-17T04:31:01;6.70;;;5.20;;
55647;SDS011;45266;48.756;9.246;2023-03-17T04:32:03;7.17;;;5.47;;
55647;SDS011;45266;48.756;9.246;2023-03-17T04:33:05;10.60;;;6.57;;
55647;SDS011;45266;48.756;9.246;2023-03-17T04:34:10;6.97;;;5.53;;
55647;SDS011;45266;48.756;9.246;2023-03-17T04:35:16;7.67;;;5.30;;
55647;SDS011;45266;48.756;9.246;2023-03-17T04:36:21;7.17;;;5.50;;
55647;SDS011;45266;48.756;9.246;2023-03-17T04:37:24;7.20;;;5.77;;
55647;SDS011;45266;48.756;9.246;2023-03-17T04:38:26;8.53;;;6.03;;
55647;SDS011;45266;48.756;9.246;2023-03-17T04:39:28;9.07;;;6.23;;
55647;SDS011;45266;48.756;9.246;2023-03-17T04:40:29;8.37;;;5.33;;
55647;SDS011;45266;48.756;9.246;2023-03-17T04:41:32;9.37;;;5.57;;
55647;SDS011;45266;48.756;9.246;2023-03-17T04:42:34;9.00;;;5.80;;
55647;SDS011;45266;48.756;9.246;2023-03-17T04:43:36;8.87;;;5.73;;
55647;SDS011;45266;48.756;9.246;2023-03-17T04:44:38;9.37;;;5.50;;
55647;SDS011;45266;48.756;9.246;2023-03-17T04:45:41;9.73;;;5.33;;
55647;SDS011;45266;48.756;9.246;2023-03-17T04:46:43;7.57;;;5.20;;
55647;SDS011;45266;48.756;9.246;2023-03-17T04:47:44;8.63;;;5.93;;
55647;SDS011;45266;48.756;9.246;2023-03-17T04:48:46;6.97;;;5.37;;
55647;SDS011;45266;48.756;9.246;2023-03-17T04:49:48;6.23;;;5.20;;
55647;SDS011;45266;48.756;9.246;2023-03-17T04:50:50;7.67;;;5.63;;
55647;SDS011;45266;48.756;9.246;2023-03-17T04:51:51;9.00;;;5.60;;
55647;SDS011;45266;48.756;9.246;2023-03-17T04:52:53;7.53;;;5.17;;
55647;SDS011;45266;48.756;9.246;2023-03-17T04:53:56;6.97;;;4.73;;
55647;SDS011;45266;48.756;9.246;2023-03-17T04:54:58;7.00;;;5.20;;
55647;SDS011;45266;48.756;9.246;2023-03-17T04:56:00;10.63;;;5.50;;
55647;SDS011;45266;48.756;9.246;2023-03-17T04:57:02;7.17;;;5.40;;
55647;SDS011;45266;48.756;9.246;2023-03-17T04:58:04;7.30;;;5.57;;
55647;SDS011;45266;48.756;9.246;2023-03-17T04:59:05;7.13;;;5.53;;
55647;SDS011;45266;48.756;9.246;2023-03-17T05:00:07;7.10;;;5.30;;
55647;SDS011;45266;48.756;9.246;2023-03-17T05:01:10;9.23;;;5.63;;
55647;SDS011;45266;48.756;9.246;2023-03-17T05:02:12;6.47;;;5.40;;
55647;SDS011;45266;48.756;9.246;2023-03-17T05:03:14;7.03;;;5.33;;
55647;SDS011;45266;48.756;9.246;2023-03-17T05:04:27;8.80;;;6.00;;
55647;SDS011;45266;48.756;9.246;2023-03-17T05:05:32;6.60;;;5.30;;
55647;SDS011;45266;48.756;9.246;2023-03-17T05:06:36;8.33;;;5.30;;
55647;SDS011;45266;48.756;9.246;2023-03-17T05:07:38;7.63;;;5.90;;
55647;SDS011;45266;48.756;9.246;2023-03-17T05:08:40;7.33;;;5.50;;
55647;SDS011;45266;48.756;9.246;2023-03-17T05:09:45;9.50;;;5.13;;
55647;SDS011;45266;48.756;9.246;2023-03-17T05:10:47;6.80;;;5.20;;
55647;SDS011;45266;48.756;9.246;2023-03-17T05:11:49;7.37;;;5.30;;
55647;SDS011;45266;48.756;9.246;2023-03-17T05:12:51;7.17;;;5.50;;
55647;SDS011;45266;48.756;9.246;2023-03-17T05:13:53;6.70;;;5.20;;
55647;SDS011;45266;48.756;9.246;2023-03-17T05:14:57;7.70;;;6.07;;
55647;SDS011;45266;48.756;9.246;2023-03-17T05:15:58;7.10;;;5.63;;
55647;SDS011;45266;48.756;9.246;2023-03-17T05:17:01;6.17;;;5.40;;
55647;SDS011;45266;48.756;9.246;2023-03-17T05:18:03;6.37;;;5.57;;
55647;SDS011;45266;48.756;9.246;2023-03-17T05:19:05;7.27;;;5.77;;
55647;SDS011;45266;48.756;9.246;2023-03-17T05:20:07;8.77;;;5.87;;
55647;SDS011;45266;48.756;9.246;2023-03-17T05:21:10;7.67;;;5.73;;
55647;SDS011;45266;48.756;9.246;2023-03-17T05:22:12;8.63;;;5.97;;
55647;SDS011;45266;48.756;9.246;2023-03-17T05:23:14;9.23;;;5.63;;
55647;SDS011;45266;48.756;9.246;2023-03-17T05:24:16;8.57;;;5.93;;
55647;SDS011;45266;48.756;9.246;2023-03-17T05:25:18;8.30;;;6.17;;
55647;SDS011;45266;48.756;9.246;2023-03-17T05:26:19;12.80;;;6.40;;
55647;SDS011;45266;48.756;9.246;2023-03-17T05:27:21;8.17;;;5.93;;
55647;SDS011;45266;48.756;9.246;2023-03-17T05:28:23;10.07;;;5.90;;
55647;SDS011;45266;48.756;9.246;2023-03-17T05:29:25;7.57;;;6.10;;
55647;SDS011;45266;48.756;9.246;2023-03-17T05:30:27;7.23;;;5.90;;
55647;SDS011;45266;48.756;9.246;2023-03-17T05:31:29;10.53;;;6.07;;
55647;SDS011;45266;48.756;9.246;2023-03-17T05:32:31;9.37;;;6.23;;
55647;SDS011;45266;48.756;9.246;2023-03-17T05:33:33;7.83;;;5.97;;
55647;SDS011;45266;48.756;9.246;2023-03-17T05:34:37;8.40;;;6.07;;
55647;SDS011;45266;48.756;9.246;2023-03-17T05:35:39;8.93;;;5.80;;
55647;SDS011;45266;48.756;9.246;2023-03-17T05:36:41;8.97;;;5.97;;
55647;SDS011;45266;48.756;9.246;2023-03-17T05:37:44;7.57;;;5.73;;
55647;SDS011;45266;48.756;9.246;2023-03-17T05:38:47;8.40;;;6.07;;
55647;SDS011;45266;48.756;9.246;2023-03-17T05:39:48;8.77;;;5.83;;
55647;SDS011;45266;48.756;9.246;2023-03-17T05:40:51;8.20;;;6.40;;
55647;SDS011;45266;48.756;9.246;2023-03-17T05:41:53;7.80;;;5.93;;
55647;SDS011;45266;48.756;9.246;2023-03-17T05:42:55;10.03;;;6.13;;
55647;SDS011;45266;48.756;9.246;2023-03-17T05:43:57;9.87;;;6.63;;
55647;SDS011;45266;48.756;9.246;2023-03-17T05:44:59;7.27;;;5.63;;
55647;SDS011;45266;48.756;9.246;2023-03-17T05:46:01;8.80;;;6.13;;
55647;SDS011;45266;48.756;9.246;2023-03-17T05:47:04;7.93;;;5.83;;
55647;SDS011;45266;48.756;9.246;2023-03-17T05:48:06;8.00;;;5.93;;
55647;SDS011;45266;48.756;9.246;2023-03-17T05:49:08;9.97;;;6.03;;
55647;SDS011;45266;48.756;9.246;2023-03-17T05:50:10;8.43;;;6.60;;
55647;SDS011;45266;48.756;9.246;2023-03-17T05:51:13;9.00;;;6.70;;
55647;SDS011;45266;48.756;9.246;2023-03-17T05:52:15;8.07;;;6.60;;
55647;SDS011;45266;48.756;9.246;2023-03-17T05:53:17;11.07;;;6.27;;
55647;SDS011;45266;48.756;9.246;2023-03-17T05:54:18;10.10;;;6.00;;
55647;SDS011;45266;48.756;9.246;2023-03-17T05:55:21;8.83;;;6.70;;
55647;SDS011;45266;48.756;9.246;2023-03-17T05:56:23;9.73;;;6.20;;
55647;SDS011;45266;48.756;9.246;2023-03-17T05:57:27;7.80;;;5.93;;
55647;SDS011;45266;48.756;9.246;2023-03-17T05:58:28;8.60;;;6.70;;
55647;SDS011;45266;48.756;9.246;2023-03-17T05:59:30;9.67;;;6.90;;
55647;SDS011;45266;48.756;9.246;2023-03-17T06:00:33;10.60;;;7.43;;
55647;SDS011;45266;48.756;9.246;2023-03-17T06:01:36;11.40;;;7.97;;
55647;SDS011;45266;48.756;9.246;2023-03-17T06:02:39;11.73;;;7.57;;
55647;SDS011;45266;48.756;9.246;2023-03-17T06:03:41;10.70;;;7.43;;
55647;SDS011;45266;48.756;9.246;2023-03-17T06:04:43;10.87;;;7.77;;
55647;SDS011;45266;48.756;9.246;2023-03-17T06:05:44;10.50;;;7.63;;
55647;SDS011;45266;48.756;9.246;2023-03-17T06:06:46;12.77;;;7.73;;
55647;SDS011;45266;48.756;9.246;2023-03-17T06:07:48;11.90;;;7.53;;
55647;SDS011;45266;48.756;9.246;2023-03-17T06:08:56;13.47;;;8.00;;
55647;SDS011;45266;48.756;9.246;2023-03-17T06:09:58;13.13;;;8.33;;
55647;SDS011;45266;48.756;9.246;2023-03-17T06:11:00;11.13;;;7.70;;
55647;SDS011;45266;48.756;9.246;2023-03-17T06:12:02;11.17;;;8.30;;
55647;SDS011;45266;48.756;9.246;2023-03-17T06:13:05;11.40;;;8.27;;
55647;SDS011;45266;48.756;9.246;2023-03-17T06:14:06;12.50;;;7.97;;
55647;SDS011;45266;48.756;9.246;2023-03-17T06:15:08;12.40;;;8.23;;
55647;SDS011;45266;48.756;9.246;2023-03-17T06:16:11;12.23;;;8.67;;
55647;SDS011;45266;48.756;9.246;2023-03-17T06:17:13;16.53;;;9.03;;
55647;SDS011;45266;48.756;9.246;2023-03-17T06:18:14;12.37;;;9.20;;
55647;SDS011;45266;48.756;9.246;2023-03-17T06:19:16;14.00;;;8.27;;
55647;SDS011;45266;48.756;9.246;2023-03-17T06:20:18;14.17;;;8.83;;
55647;SDS011;45266;48.756;9.246;2023-03-17T06:21:21;14.53;;;10.17;;
55647;SDS011;45266;48.756;9.246;2023-03-17T06:22:22;14.03;;;9.00;;
55647;SDS011;45266;48.756;9.246;2023-03-17T06:23:24;10.87;;;7.90;;
55647;SDS011;45266;48.756;9.246;2023-03-17T06:24:26;11.37;;;8.30;;
55647;SDS011;45266;48.756;9.246;2023-03-17T06:25:28;11.67;;;8.13;;
55647;SDS011;45266;48.756;9.246;2023-03-17T06:26:30;10.50;;;7.63;;